Terminal Aerodrome Forecast
Issued by NWS Charleston, WV

Current Version | Previous Version | Graphics & Text | Print | Product List | Glossary On
Versions: 1 2 3 4 5 6 7 8 9 10 11 12 13 14 15 16 17 18 19 20 21 22 23 24 25 26 27
000
FTUS41 KRLX 011154 CCA
TAFCRW
TAF COR
KCRW 011154Z 0112/0212 VRB03KT P6SM BKN025
      TEMPO 0112/0113 3SM SHRA BKN015
     FM011330 26006KT P6SM SCT030
     FM020200 26005KT 6SM BR VCTS BKN050CB
     FM020700 VRB04KT 3SM BR VCTS BKN070CB=

USA.gov is the U.S. government's official web portal to all federal, state and local government web resources and services.